Itapetininga, Brazil
Current Conditions -  °F | °C
As of 1:00 AM on Friday 19 Dec 2014 (Local Time) from SBKP Reporting Station
Clear Clear  
Wind Chill: 75°   Ceiling: Unl
Heat Index: 75°   Visibility: 6mi
Dew Point: 57°   Wind: 10mph
Humidity: 53%   Direction: 130°SE
Pressure: 29.91"   Gusts: NA
Location:  23.59°S, 48.04°W
Report Text: SBKP 190300Z 13009KT CAVOK 24/14 Q1013
Loading
Personal Weather Stations






























Interactive Weather Map New forecast layout! Learn more

10-Day Weather Forecast

Advertisements
Track Severe Weather on mobile